Aviation Digital Data Service (ADDS)

Output produced by TAFs form (2204 UTC 18 January 2017)
found at http://aviationweather.gov/adds/tafs/
 
KTCC 181741Z 1818/1918 24017KT P6SM SCT080 
     FM190000 25015KT P6SM SCT070